sensor_id;sensor_type;location;lat;lon;timestamp;temperature;humidity
14301;DHT22;7234;59.306;18.024;2023-05-23T00:02:18;14.60;99.90
14301;DHT22;7234;59.306;18.024;2023-05-23T00:04:45;14.50;99.90
14301;DHT22;7234;59.306;18.024;2023-05-23T00:07:12;14.50;99.90
14301;DHT22;7234;59.306;18.024;2023-05-23T00:09:39;14.40;99.90
14301;DHT22;7234;59.306;18.024;2023-05-23T00:12:07;14.40;99.90
14301;DHT22;7234;59.306;18.024;2023-05-23T00:14:35;14.40;99.90
14301;DHT22;7234;59.306;18.024;2023-05-23T00:17:02;14.40;99.90
14301;DHT22;7234;59.306;18.024;2023-05-23T00:19:30;14.40;99.90
14301;DHT22;7234;59.306;18.024;2023-05-23T00:22:00;14.30;99.90
14301;DHT22;7234;59.306;18.024;2023-05-23T00:24:28;14.30;99.90
14301;DHT22;7234;59.306;18.024;2023-05-23T00:26:55;14.30;99.90
14301;DHT22;7234;59.306;18.024;2023-05-23T00:29:25;14.20;99.90
14301;DHT22;7234;59.306;18.024;2023-05-23T00:31:52;14.20;99.90
14301;DHT22;7234;59.306;18.024;2023-05-23T00:34:19;14.20;99.90
14301;DHT22;7234;59.306;18.024;2023-05-23T00:36:47;14.10;99.90
14301;DHT22;7234;59.306;18.024;2023-05-23T00:39:15;14.10;99.90
14301;DHT22;7234;59.306;18.024;2023-05-23T00:41:45;14.10;99.90
14301;DHT22;7234;59.306;18.024;2023-05-23T00:44:12;14.10;99.90
14301;DHT22;7234;59.306;18.024;2023-05-23T00:46:43;14.10;99.90
14301;DHT22;7234;59.306;18.024;2023-05-23T00:49:11;14.10;99.90
14301;DHT22;7234;59.306;18.024;2023-05-23T00:51:38;14.00;99.90
14301;DHT22;7234;59.306;18.024;2023-05-23T00:54:08;14.00;99.90
14301;DHT22;7234;59.306;18.024;2023-05-23T00:56:37;14.00;99.90
14301;DHT22;7234;59.306;18.024;2023-05-23T00:59:06;13.90;99.90
14301;DHT22;7234;59.306;18.024;2023-05-23T01:01:34;13.90;99.90
14301;DHT22;7234;59.306;18.024;2023-05-23T01:04:03;13.90;99.90
14301;DHT22;7234;59.306;18.024;2023-05-23T01:06:32;13.90;99.90
14301;DHT22;7234;59.306;18.024;2023-05-23T01:09:01;13.80;99.90
14301;DHT22;7234;59.306;18.024;2023-05-23T01:11:32;13.80;99.90
14301;DHT22;7234;59.306;18.024;2023-05-23T01:14:08;13.80;99.90
14301;DHT22;7234;59.306;18.024;2023-05-23T01:16:41;13.70;99.90
14301;DHT22;7234;59.306;18.024;2023-05-23T01:19:33;13.70;99.90
14301;DHT22;7234;59.306;18.024;2023-05-23T01:22:10;13.70;99.90
14301;DHT22;7234;59.306;18.024;2023-05-23T01:24:46;13.70;99.90
14301;DHT22;7234;59.306;18.024;2023-05-23T01:27:28;13.70;99.90
14301;DHT22;7234;59.306;18.024;2023-05-23T01:29:59;13.70;99.90
14301;DHT22;7234;59.306;18.024;2023-05-23T01:32:28;13.60;99.90
14301;DHT22;7234;59.306;18.024;2023-05-23T01:34:57;13.60;99.90
14301;DHT22;7234;59.306;18.024;2023-05-23T01:37:25;13.60;99.90
14301;DHT22;7234;59.306;18.024;2023-05-23T01:39:54;13.60;99.90
14301;DHT22;7234;59.306;18.024;2023-05-23T01:42:21;13.50;99.90
14301;DHT22;7234;59.306;18.024;2023-05-23T01:44:48;13.50;99.90
14301;DHT22;7234;59.306;18.024;2023-05-23T01:47:17;13.50;99.90
14301;DHT22;7234;59.306;18.024;2023-05-23T01:49:45;13.50;99.90
14301;DHT22;7234;59.306;18.024;2023-05-23T01:52:14;13.50;99.90
14301;DHT22;7234;59.306;18.024;2023-05-23T01:54:41;13.50;99.90
14301;DHT22;7234;59.306;18.024;2023-05-23T01:57:09;13.40;99.90
14301;DHT22;7234;59.306;18.024;2023-05-23T01:59:36;13.40;99.90
14301;DHT22;7234;59.306;18.024;2023-05-23T02:02:04;13.40;99.90
14301;DHT22;7234;59.306;18.024;2023-05-23T02:04:34;13.30;99.90
14301;DHT22;7234;59.306;18.024;2023-05-23T02:07:01;13.30;99.90
14301;DHT22;7234;59.306;18.024;2023-05-23T02:09:28;13.30;99.90
14301;DHT22;7234;59.306;18.024;2023-05-23T02:11:55;13.20;99.90
14301;DHT22;7234;59.306;18.024;2023-05-23T02:14:22;13.20;99.90
14301;DHT22;7234;59.306;18.024;2023-05-23T02:16:51;13.10;99.90
14301;DHT22;7234;59.306;18.024;2023-05-23T02:19:18;13.10;99.90
14301;DHT22;7234;59.306;18.024;2023-05-23T02:21:47;13.10;99.90
14301;DHT22;7234;59.306;18.024;2023-05-23T02:24:14;13.20;99.90
14301;DHT22;7234;59.306;18.024;2023-05-23T02:26:41;13.10;99.90
14301;DHT22;7234;59.306;18.024;2023-05-23T02:29:09;13.10;99.90
14301;DHT22;7234;59.306;18.024;2023-05-23T02:31:36;13.00;99.90
14301;DHT22;7234;59.306;18.024;2023-05-23T02:34:03;13.00;99.90
14301;DHT22;7234;59.306;18.024;2023-05-23T02:36:31;13.00;99.90
14301;DHT22;7234;59.306;18.024;2023-05-23T02:39:00;13.00;99.90
14301;DHT22;7234;59.306;18.024;2023-05-23T02:41:27;13.10;99.90
14301;DHT22;7234;59.306;18.024;2023-05-23T02:43:54;13.10;99.90
14301;DHT22;7234;59.306;18.024;2023-05-23T02:46:22;13.20;99.90
14301;DHT22;7234;59.306;18.024;2023-05-23T02:48:49;13.30;99.90
14301;DHT22;7234;59.306;18.024;2023-05-23T02:51:16;13.30;99.90
14301;DHT22;7234;59.306;18.024;2023-05-23T02:53:43;13.30;99.90
14301;DHT22;7234;59.306;18.024;2023-05-23T02:56:12;13.30;99.90
14301;DHT22;7234;59.306;18.024;2023-05-23T02:58:40;13.40;99.90
14301;DHT22;7234;59.306;18.024;2023-05-23T03:01:07;13.30;99.90
14301;DHT22;7234;59.306;18.024;2023-05-23T03:03:35;13.30;99.90
14301;DHT22;7234;59.306;18.024;2023-05-23T03:06:02;13.30;99.90
14301;DHT22;7234;59.306;18.024;2023-05-23T03:08:29;13.30;99.90
14301;DHT22;7234;59.306;18.024;2023-05-23T03:10:56;13.30;99.90
14301;DHT22;7234;59.306;18.024;2023-05-23T03:13:25;13.20;99.90
14301;DHT22;7234;59.306;18.024;2023-05-23T03:15:53;13.20;99.90
14301;DHT22;7234;59.306;18.024;2023-05-23T03:18:22;13.00;99.90
14301;DHT22;7234;59.306;18.024;2023-05-23T03:20:50;13.00;99.90
14301;DHT22;7234;59.306;18.024;2023-05-23T03:23:17;12.90;99.90
14301;DHT22;7234;59.306;18.024;2023-05-23T03:25:44;12.90;99.90
14301;DHT22;7234;59.306;18.024;2023-05-23T03:28:11;13.00;99.90
14301;DHT22;7234;59.306;18.024;2023-05-23T03:30:39;13.00;99.90
14301;DHT22;7234;59.306;18.024;2023-05-23T03:33:07;13.00;99.90
14301;DHT22;7234;59.306;18.024;2023-05-23T03:35:34;13.00;99.90
14301;DHT22;7234;59.306;18.024;2023-05-23T03:38:01;13.10;99.90
14301;DHT22;7234;59.306;18.024;2023-05-23T03:40:28;13.10;99.90
14301;DHT22;7234;59.306;18.024;2023-05-23T03:43:02;13.10;99.90
14301;DHT22;7234;59.306;18.024;2023-05-23T03:45:30;13.10;99.90
14301;DHT22;7234;59.306;18.024;2023-05-23T03:47:59;13.10;99.90
14301;DHT22;7234;59.306;18.024;2023-05-23T03:50:26;13.10;99.90
14301;DHT22;7234;59.306;18.024;2023-05-23T03:52:53;13.10;99.90
14301;DHT22;7234;59.306;18.024;2023-05-23T03:55:20;13.20;99.90
14301;DHT22;7234;59.306;18.024;2023-05-23T03:57:48;13.10;99.90
14301;DHT22;7234;59.306;18.024;2023-05-23T04:00:16;13.20;99.90
14301;DHT22;7234;59.306;18.024;2023-05-23T04:02:43;13.10;99.90
14301;DHT22;7234;59.306;18.024;2023-05-23T04:05:12;13.10;99.90
14301;DHT22;7234;59.306;18.024;2023-05-23T04:07:40;13.20;99.90
14301;DHT22;7234;59.306;18.024;2023-05-23T04:10:08;13.30;99.90
14301;DHT22;7234;59.306;18.024;2023-05-23T04:12:35;13.40;99.90
14301;DHT22;7234;59.306;18.024;2023-05-23T04:15:03;13.30;99.90
14301;DHT22;7234;59.306;18.024;2023-05-23T04:17:30;13.40;99.90
14301;DHT22;7234;59.306;18.024;2023-05-23T04:19:57;13.40;99.90
14301;DHT22;7234;59.306;18.024;2023-05-23T04:22:26;13.50;99.90
14301;DHT22;7234;59.306;18.024;2023-05-23T04:24:53;13.60;99.90
14301;DHT22;7234;59.306;18.024;2023-05-23T04:27:20;13.70;99.90
14301;DHT22;7234;59.306;18.024;2023-05-23T04:29:50;13.80;99.90
14301;DHT22;7234;59.306;18.024;2023-05-23T04:32:18;14.00;99.90
14301;DHT22;7234;59.306;18.024;2023-05-23T04:34:47;14.10;99.90
14301;DHT22;7234;59.306;18.024;2023-05-23T04:37:14;14.10;99.90
14301;DHT22;7234;59.306;18.024;2023-05-23T04:39:43;14.10;99.90
14301;DHT22;7234;59.306;18.024;2023-05-23T04:42:11;14.30;99.90
14301;DHT22;7234;59.306;18.024;2023-05-23T04:44:39;14.30;99.90
14301;DHT22;7234;59.306;18.024;2023-05-23T04:47:07;14.30;99.90
14301;DHT22;7234;59.306;18.024;2023-05-23T04:49:35;14.30;99.90
14301;DHT22;7234;59.306;18.024;2023-05-23T04:52:02;14.50;99.90
14301;DHT22;7234;59.306;18.024;2023-05-23T04:54:29;14.50;99.90
14301;DHT22;7234;59.306;18.024;2023-05-23T04:56:59;14.70;99.90
14301;DHT22;7234;59.306;18.024;2023-05-23T04:59:26;15.00;99.90
14301;DHT22;7234;59.306;18.024;2023-05-23T05:01:56;15.10;99.90
14301;DHT22;7234;59.306;18.024;2023-05-23T05:04:23;15.20;99.90
14301;DHT22;7234;59.306;18.024;2023-05-23T05:06:50;15.30;99.90
14301;DHT22;7234;59.306;18.024;2023-05-23T05:09:18;15.40;99.90
14301;DHT22;7234;59.306;18.024;2023-05-23T05:11:47;15.60;99.90
14301;DHT22;7234;59.306;18.024;2023-05-23T05:14:17;15.60;99.90
14301;DHT22;7234;59.306;18.024;2023-05-23T05:16:44;15.80;99.90
14301;DHT22;7234;59.306;18.024;2023-05-23T05:19:13;15.90;99.90
14301;DHT22;7234;59.306;18.024;2023-05-23T05:21:41;15.90;99.90
14301;DHT22;7234;59.306;18.024;2023-05-23T05:24:08;16.00;99.90
14301;DHT22;7234;59.306;18.024;2023-05-23T05:26:37;16.30;99.90
14301;DHT22;7234;59.306;18.024;2023-05-23T05:29:04;16.30;99.90
14301;DHT22;7234;59.306;18.024;2023-05-23T05:31:34;16.40;99.90
14301;DHT22;7234;59.306;18.024;2023-05-23T05:34:02;16.50;99.90
14301;DHT22;7234;59.306;18.024;2023-05-23T05:36:29;16.50;99.90
14301;DHT22;7234;59.306;18.024;2023-05-23T05:38:57;16.60;99.90
14301;DHT22;7234;59.306;18.024;2023-05-23T05:41:24;16.70;99.90
14301;DHT22;7234;59.306;18.024;2023-05-23T05:43:51;16.60;99.90
14301;DHT22;7234;59.306;18.024;2023-05-23T05:46:23;16.80;99.90
14301;DHT22;7234;59.306;18.024;2023-05-23T05:48:56;17.00;99.90
14301;DHT22;7234;59.306;18.024;2023-05-23T05:51:23;17.10;99.90
14301;DHT22;7234;59.306;18.024;2023-05-23T05:53:50;17.20;99.90
14301;DHT22;7234;59.306;18.024;2023-05-23T05:56:18;17.20;99.90
14301;DHT22;7234;59.306;18.024;2023-05-23T05:58:53;17.40;99.90
14301;DHT22;7234;59.306;18.024;2023-05-23T06:01:23;17.50;99.90
14301;DHT22;7234;59.306;18.024;2023-05-23T06:03:56;17.50;99.90
14301;DHT22;7234;59.306;18.024;2023-05-23T06:06:24;17.60;99.90
14301;DHT22;7234;59.306;18.024;2023-05-23T06:08:51;17.70;99.90
14301;DHT22;7234;59.306;18.024;2023-05-23T06:11:18;17.80;99.90
14301;DHT22;7234;59.306;18.024;2023-05-23T06:13:47;18.00;99.90
14301;DHT22;7234;59.306;18.024;2023-05-23T06:16:14;18.10;99.90
14301;DHT22;7234;59.306;18.024;2023-05-23T06:18:41;18.40;99.90
14301;DHT22;7234;59.306;18.024;2023-05-23T06:21:10;18.50;99.90
14301;DHT22;7234;59.306;18.024;2023-05-23T06:23:37;18.60;99.90
14301;DHT22;7234;59.306;18.024;2023-05-23T06:26:04;18.60;99.90
14301;DHT22;7234;59.306;18.024;2023-05-23T06:28:36;18.70;99.90
14301;DHT22;7234;59.306;18.024;2023-05-23T06:31:03;18.80;99.90
14301;DHT22;7234;59.306;18.024;2023-05-23T06:33:31;18.80;99.90
14301;DHT22;7234;59.306;18.024;2023-05-23T06:35:58;19.00;99.90
14301;DHT22;7234;59.306;18.024;2023-05-23T06:38:30;19.10;99.90
14301;DHT22;7234;59.306;18.024;2023-05-23T06:40:58;19.20;99.90
14301;DHT22;7234;59.306;18.024;2023-05-23T06:43:25;19.30;99.90
14301;DHT22;7234;59.306;18.024;2023-05-23T06:48:23;19.50;99.90
14301;DHT22;7234;59.306;18.024;2023-05-23T06:50:50;19.80;99.90
14301;DHT22;7234;59.306;18.024;2023-05-23T06:53:17;19.80;99.90
14301;DHT22;7234;59.306;18.024;2023-05-23T07:00:43;20.10;99.90
14301;DHT22;7234;59.306;18.024;2023-05-23T07:03:10;19.90;99.90
14301;DHT22;7234;59.306;18.024;2023-05-23T07:05:37;20.00;99.90
14301;DHT22;7234;59.306;18.024;2023-05-23T07:08:06;20.10;99.90
14301;DHT22;7234;59.306;18.024;2023-05-23T07:10:35;20.20;99.90
14301;DHT22;7234;59.306;18.024;2023-05-23T07:13:05;20.30;99.90
14301;DHT22;7234;59.306;18.024;2023-05-23T07:15:33;20.50;99.90
14301;DHT22;7234;59.306;18.024;2023-05-23T07:18:00;20.50;99.90
14301;DHT22;7234;59.306;18.024;2023-05-23T07:20:27;20.50;99.90
14301;DHT22;7234;59.306;18.024;2023-05-23T07:22:54;20.60;99.90
14301;DHT22;7234;59.306;18.024;2023-05-23T07:25:21;20.90;99.90
14301;DHT22;7234;59.306;18.024;2023-05-23T07:27:49;21.10;99.90
14301;DHT22;7234;59.306;18.024;2023-05-23T07:30:18;21.10;99.90
14301;DHT22;7234;59.306;18.024;2023-05-23T07:32:46;21.00;99.90
14301;DHT22;7234;59.306;18.024;2023-05-23T07:35:13;21.30;99.90
14301;DHT22;7234;59.306;18.024;2023-05-23T07:37:41;21.50;99.90
14301;DHT22;7234;59.306;18.024;2023-05-23T07:40:09;21.30;99.90
14301;DHT22;7234;59.306;18.024;2023-05-23T07:42:36;21.40;99.90
14301;DHT22;7234;59.306;18.024;2023-05-23T07:45:03;21.50;99.90
14301;DHT22;7234;59.306;18.024;2023-05-23T07:47:32;21.60;99.90
14301;DHT22;7234;59.306;18.024;2023-05-23T07:49:59;21.80;99.90
14301;DHT22;7234;59.306;18.024;2023-05-23T07:52:27;21.80;99.90
14301;DHT22;7234;59.306;18.024;2023-05-23T07:54:55;21.80;99.90
14301;DHT22;7234;59.306;18.024;2023-05-23T07:57:22;21.80;99.90
14301;DHT22;7234;59.306;18.024;2023-05-23T07:59:50;21.80;99.90
14301;DHT22;7234;59.306;18.024;2023-05-23T08:02:18;22.10;99.90
14301;DHT22;7234;59.306;18.024;2023-05-23T08:04:47;22.30;99.90
14301;DHT22;7234;59.306;18.024;2023-05-23T08:07:14;22.50;99.90
14301;DHT22;7234;59.306;18.024;2023-05-23T08:09:41;22.80;99.90
14301;DHT22;7234;59.306;18.024;2023-05-23T08:12:09;23.10;99.90
14301;DHT22;7234;59.306;18.024;2023-05-23T08:14:38;23.40;99.90
14301;DHT22;7234;59.306;18.024;2023-05-23T08:17:05;23.50;99.90
14301;DHT22;7234;59.306;18.024;2023-05-23T08:19:32;23.50;99.90
14301;DHT22;7234;59.306;18.024;2023-05-23T08:22:00;23.30;99.90
14301;DHT22;7234;59.306;18.024;2023-05-23T08:24:29;23.20;99.90
14301;DHT22;7234;59.306;18.024;2023-05-23T08:26:56;23.20;99.40
14301;DHT22;7234;59.306;18.024;2023-05-23T08:29:23;22.70;98.80
14301;DHT22;7234;59.306;18.024;2023-05-23T08:31:50;22.80;98.70
14301;DHT22;7234;59.306;18.024;2023-05-23T08:34:17;23.00;99.00
14301;DHT22;7234;59.306;18.024;2023-05-23T08:36:44;23.10;99.10
14301;DHT22;7234;59.306;18.024;2023-05-23T08:39:12;23.40;98.90
14301;DHT22;7234;59.306;18.024;2023-05-23T08:41:40;23.70;98.80
14301;DHT22;7234;59.306;18.024;2023-05-23T08:44:09;23.30;97.50
14301;DHT22;7234;59.306;18.024;2023-05-23T08:46:40;23.30;97.80
14301;DHT22;7234;59.306;18.024;2023-05-23T08:49:10;23.70;97.90
14301;DHT22;7234;59.306;18.024;2023-05-23T08:51:42;23.60;97.00
14301;DHT22;7234;59.306;18.024;2023-05-23T08:54:09;23.50;96.70
14301;DHT22;7234;59.306;18.024;2023-05-23T08:56:42;23.50;97.00
14301;DHT22;7234;59.306;18.024;2023-05-23T08:59:11;23.20;96.50
14301;DHT22;7234;59.306;18.024;2023-05-23T09:01:39;23.60;96.70
14301;DHT22;7234;59.306;18.024;2023-05-23T09:04:07;23.50;96.70
14301;DHT22;7234;59.306;18.024;2023-05-23T09:06:35;23.50;96.80
14301;DHT22;7234;59.306;18.024;2023-05-23T09:09:02;23.60;96.30
14301;DHT22;7234;59.306;18.024;2023-05-23T09:11:30;23.60;95.50
14301;DHT22;7234;59.306;18.024;2023-05-23T09:14:00;23.80;95.20
14301;DHT22;7234;59.306;18.024;2023-05-23T09:16:31;23.80;95.80
14301;DHT22;7234;59.306;18.024;2023-05-23T09:18:59;23.90;95.60
14301;DHT22;7234;59.306;18.024;2023-05-23T09:21:35;24.10;95.90
14301;DHT22;7234;59.306;18.024;2023-05-23T09:24:02;24.20;95.70
14301;DHT22;7234;59.306;18.024;2023-05-23T09:26:31;24.40;95.40
14301;DHT22;7234;59.306;18.024;2023-05-23T09:28:59;24.50;95.60
14301;DHT22;7234;59.306;18.024;2023-05-23T09:31:26;24.70;95.50
14301;DHT22;7234;59.306;18.024;2023-05-23T09:33:54;25.00;95.50
14301;DHT22;7234;59.306;18.024;2023-05-23T09:36:21;25.00;94.80
14301;DHT22;7234;59.306;18.024;2023-05-23T09:38:48;24.40;94.70
14301;DHT22;7234;59.306;18.024;2023-05-23T09:41:18;24.60;95.00
14301;DHT22;7234;59.306;18.024;2023-05-23T09:43:49;24.70;94.10
14301;DHT22;7234;59.306;18.024;2023-05-23T09:46:19;24.90;95.00
14301;DHT22;7234;59.306;18.024;2023-05-23T09:48:46;24.90;94.10
14301;DHT22;7234;59.306;18.024;2023-05-23T09:51:17;25.10;93.90
14301;DHT22;7234;59.306;18.024;2023-05-23T09:53:45;25.00;93.30
14301;DHT22;7234;59.306;18.024;2023-05-23T09:56:12;25.40;92.30
14301;DHT22;7234;59.306;18.024;2023-05-23T09:58:45;25.30;90.80
14301;DHT22;7234;59.306;18.024;2023-05-23T10:01:12;25.50;91.00
14301;DHT22;7234;59.306;18.024;2023-05-23T10:03:44;25.40;89.70
14301;DHT22;7234;59.306;18.024;2023-05-23T10:06:18;25.60;89.40
14301;DHT22;7234;59.306;18.024;2023-05-23T10:08:52;25.80;89.50
14301;DHT22;7234;59.306;18.024;2023-05-23T10:14:56;25.90;87.90
14301;DHT22;7234;59.306;18.024;2023-05-23T10:17:31;26.30;87.90
14301;DHT22;7234;59.306;18.024;2023-05-23T10:20:09;26.70;86.70
14301;DHT22;7234;59.306;18.024;2023-05-23T10:28:30;25.90;85.40
14301;DHT22;7234;59.306;18.024;2023-05-23T10:31:19;25.80;84.90
14301;DHT22;7234;59.306;18.024;2023-05-23T10:34:11;26.00;84.80
14301;DHT22;7234;59.306;18.024;2023-05-23T10:40:21;25.90;87.80
14301;DHT22;7234;59.306;18.024;2023-05-23T10:42:55;26.20;87.90
14301;DHT22;7234;59.306;18.024;2023-05-23T10:45:24;26.20;88.80
14301;DHT22;7234;59.306;18.024;2023-05-23T10:47:54;26.20;87.50
14301;DHT22;7234;59.306;18.024;2023-05-23T10:50:36;25.80;88.10
14301;DHT22;7234;59.306;18.024;2023-05-23T10:53:05;26.00;88.40
14301;DHT22;7234;59.306;18.024;2023-05-23T10:55:36;26.10;88.10
14301;DHT22;7234;59.306;18.024;2023-05-23T10:58:14;26.10;85.90
14301;DHT22;7234;59.306;18.024;2023-05-23T11:00:52;26.10;84.30
14301;DHT22;7234;59.306;18.024;2023-05-23T11:03:33;26.00;85.00
14301;DHT22;7234;59.306;18.024;2023-05-23T11:06:02;26.20;84.00
14301;DHT22;7234;59.306;18.024;2023-05-23T11:08:36;26.30;82.90
14301;DHT22;7234;59.306;18.024;2023-05-23T11:11:21;26.00;80.90
14301;DHT22;7234;59.306;18.024;2023-05-23T11:13:56;26.10;81.30
14301;DHT22;7234;59.306;18.024;2023-05-23T11:16:29;26.20;80.60
14301;DHT22;7234;59.306;18.024;2023-05-23T11:21:43;26.40;80.10
14301;DHT22;7234;59.306;18.024;2023-05-23T11:24:11;26.20;80.20
14301;DHT22;7234;59.306;18.024;2023-05-23T11:26:51;25.90;79.20
14301;DHT22;7234;59.306;18.024;2023-05-23T11:29:19;25.80;79.70
14301;DHT22;7234;59.306;18.024;2023-05-23T11:31:47;25.70;79.60
14301;DHT22;7234;59.306;18.024;2023-05-23T11:34:17;25.40;80.40
14301;DHT22;7234;59.306;18.024;2023-05-23T11:36:46;25.70;80.50
14301;DHT22;7234;59.306;18.024;2023-05-23T11:39:14;25.90;80.70
14301;DHT22;7234;59.306;18.024;2023-05-23T11:41:43;26.30;79.90
14301;DHT22;7234;59.306;18.024;2023-05-23T11:44:12;26.20;79.30
14301;DHT22;7234;59.306;18.024;2023-05-23T11:46:58;26.40;77.80
14301;DHT22;7234;59.306;18.024;2023-05-23T11:49:27;26.30;78.10
14301;DHT22;7234;59.306;18.024;2023-05-23T11:51:55;26.60;78.60
14301;DHT22;7234;59.306;18.024;2023-05-23T11:54:23;26.50;77.20
14301;DHT22;7234;59.306;18.024;2023-05-23T11:56:53;26.70;77.50
14301;DHT22;7234;59.306;18.024;2023-05-23T11:59:20;26.30;76.70
14301;DHT22;7234;59.306;18.024;2023-05-23T12:01:48;26.40;77.40
14301;DHT22;7234;59.306;18.024;2023-05-23T12:04:16;25.90;76.30
14301;DHT22;7234;59.306;18.024;2023-05-23T12:06:46;25.80;77.60
14301;DHT22;7234;59.306;18.024;2023-05-23T12:09:13;25.80;77.50
14301;DHT22;7234;59.306;18.024;2023-05-23T12:11:42;25.90;76.60
14301;DHT22;7234;59.306;18.024;2023-05-23T12:14:15;26.20;77.20
14301;DHT22;7234;59.306;18.024;2023-05-23T12:16:43;26.10;77.70
14301;DHT22;7234;59.306;18.024;2023-05-23T12:19:12;26.30;77.50
14301;DHT22;7234;59.306;18.024;2023-05-23T12:21:41;26.60;77.60
14301;DHT22;7234;59.306;18.024;2023-05-23T12:24:16;25.80;77.20
14301;DHT22;7234;59.306;18.024;2023-05-23T12:26:51;25.90;78.00
14301;DHT22;7234;59.306;18.024;2023-05-23T12:29:26;26.10;78.60
14301;DHT22;7234;59.306;18.024;2023-05-23T12:31:54;26.20;78.90
14301;DHT22;7234;59.306;18.024;2023-05-23T12:34:21;26.10;78.50
14301;DHT22;7234;59.306;18.024;2023-05-23T12:36:53;26.30;79.00
14301;DHT22;7234;59.306;18.024;2023-05-23T12:39:27;25.80;79.20
14301;DHT22;7234;59.306;18.024;2023-05-23T12:42:06;25.80;78.80
14301;DHT22;7234;59.306;18.024;2023-05-23T12:44:35;25.90;79.30
14301;DHT22;7234;59.306;18.024;2023-05-23T12:47:02;25.70;78.30
14301;DHT22;7234;59.306;18.024;2023-05-23T12:49:30;26.00;78.90
14301;DHT22;7234;59.306;18.024;2023-05-23T12:51:57;25.90;78.10
14301;DHT22;7234;59.306;18.024;2023-05-23T12:54:25;26.00;78.50
14301;DHT22;7234;59.306;18.024;2023-05-23T12:56:55;25.70;78.60
14301;DHT22;7234;59.306;18.024;2023-05-23T12:59:23;25.70;78.90
14301;DHT22;7234;59.306;18.024;2023-05-23T13:01:53;25.70;79.50
14301;DHT22;7234;59.306;18.024;2023-05-23T13:04:21;25.60;79.60
14301;DHT22;7234;59.306;18.024;2023-05-23T13:06:48;25.40;79.40
14301;DHT22;7234;59.306;18.024;2023-05-23T13:09:17;25.60;79.90
14301;DHT22;7234;59.306;18.024;2023-05-23T13:11:44;25.90;79.40
14301;DHT22;7234;59.306;18.024;2023-05-23T13:14:12;25.40;80.00
14301;DHT22;7234;59.306;18.024;2023-05-23T13:16:40;25.40;79.90
14301;DHT22;7234;59.306;18.024;2023-05-23T13:19:09;25.30;80.10
14301;DHT22;7234;59.306;18.024;2023-05-23T13:21:37;25.40;80.50
14301;DHT22;7234;59.306;18.024;2023-05-23T13:24:05;25.20;81.10
14301;DHT22;7234;59.306;18.024;2023-05-23T13:26:33;24.80;80.60
14301;DHT22;7234;59.306;18.024;2023-05-23T13:29:01;24.40;80.90
14301;DHT22;7234;59.306;18.024;2023-05-23T13:31:28;24.30;81.10
14301;DHT22;7234;59.306;18.024;2023-05-23T13:33:56;23.80;81.30
14301;DHT22;7234;59.306;18.024;2023-05-23T13:36:26;23.60;82.70
14301;DHT22;7234;59.306;18.024;2023-05-23T13:38:54;23.60;83.50
14301;DHT22;7234;59.306;18.024;2023-05-23T13:41:21;23.50;83.60
14301;DHT22;7234;59.306;18.024;2023-05-23T13:43:49;23.20;80.80
14301;DHT22;7234;59.306;18.024;2023-05-23T13:46:16;23.10;80.10
14301;DHT22;7234;59.306;18.024;2023-05-23T13:48:43;23.50;78.90
14301;DHT22;7234;59.306;18.024;2023-05-23T13:51:11;23.50;77.30
14301;DHT22;7234;59.306;18.024;2023-05-23T13:53:43;23.60;77.90
14301;DHT22;7234;59.306;18.024;2023-05-23T13:56:10;23.50;77.90
14301;DHT22;7234;59.306;18.024;2023-05-23T13:58:38;23.70;78.60
14301;DHT22;7234;59.306;18.024;2023-05-23T14:01:07;23.70;79.50
14301;DHT22;7234;59.306;18.024;2023-05-23T14:03:35;23.60;80.10
14301;DHT22;7234;59.306;18.024;2023-05-23T14:06:02;23.50;78.50
14301;DHT22;7234;59.306;18.024;2023-05-23T14:08:30;23.50;78.20
14301;DHT22;7234;59.306;18.024;2023-05-23T14:10:58;23.60;76.90
14301;DHT22;7234;59.306;18.024;2023-05-23T14:13:26;23.60;77.30
14301;DHT22;7234;59.306;18.024;2023-05-23T14:15:53;23.40;78.00
14301;DHT22;7234;59.306;18.024;2023-05-23T14:18:21;23.30;77.80
14301;DHT22;7234;59.306;18.024;2023-05-23T14:20:48;23.20;78.10
14301;DHT22;7234;59.306;18.024;2023-05-23T14:23:16;23.30;77.20
14301;DHT22;7234;59.306;18.024;2023-05-23T14:25:44;23.00;77.10
14301;DHT22;7234;59.306;18.024;2023-05-23T14:28:18;23.10;76.40
14301;DHT22;7234;59.306;18.024;2023-05-23T14:30:46;22.80;77.30
14301;DHT22;7234;59.306;18.024;2023-05-23T14:33:13;22.80;76.50
14301;DHT22;7234;59.306;18.024;2023-05-23T14:35:40;22.60;76.80
14301;DHT22;7234;59.306;18.024;2023-05-23T14:38:08;22.60;77.50
14301;DHT22;7234;59.306;18.024;2023-05-23T14:40:38;22.60;77.30
14301;DHT22;7234;59.306;18.024;2023-05-23T14:43:06;22.50;75.90
14301;DHT22;7234;59.306;18.024;2023-05-23T14:45:38;22.70;76.90
14301;DHT22;7234;59.306;18.024;2023-05-23T14:48:06;22.40;75.80
14301;DHT22;7234;59.306;18.024;2023-05-23T14:50:33;22.60;76.90
14301;DHT22;7234;59.306;18.024;2023-05-23T14:53:01;22.70;76.20
14301;DHT22;7234;59.306;18.024;2023-05-23T14:55:28;22.80;76.80
14301;DHT22;7234;59.306;18.024;2023-05-23T14:57:56;22.80;76.70
14301;DHT22;7234;59.306;18.024;2023-05-23T15:00:23;22.80;74.60
14301;DHT22;7234;59.306;18.024;2023-05-23T15:02:57;22.40;74.80
14301;DHT22;7234;59.306;18.024;2023-05-23T15:05:24;22.40;75.90
14301;DHT22;7234;59.306;18.024;2023-05-23T15:07:55;22.10;75.30
14301;DHT22;7234;59.306;18.024;2023-05-23T15:10:23;22.00;74.70
14301;DHT22;7234;59.306;18.024;2023-05-23T15:12:50;22.00;74.90
14301;DHT22;7234;59.306;18.024;2023-05-23T15:15:19;22.00;74.90
14301;DHT22;7234;59.306;18.024;2023-05-23T15:17:49;21.80;74.70
14301;DHT22;7234;59.306;18.024;2023-05-23T15:20:18;21.90;73.70
14301;DHT22;7234;59.306;18.024;2023-05-23T15:25:13;21.60;73.80
14301;DHT22;7234;59.306;18.024;2023-05-23T15:27:41;21.60;74.20
14301;DHT22;7234;59.306;18.024;2023-05-23T15:30:12;21.70;74.00
14301;DHT22;7234;59.306;18.024;2023-05-23T15:32:39;21.70;73.90
14301;DHT22;7234;59.306;18.024;2023-05-23T15:35:10;21.70;73.60
14301;DHT22;7234;59.306;18.024;2023-05-23T15:37:41;21.60;73.40
14301;DHT22;7234;59.306;18.024;2023-05-23T15:40:10;21.50;72.70
14301;DHT22;7234;59.306;18.024;2023-05-23T15:42:38;21.40;72.20
14301;DHT22;7234;59.306;18.024;2023-05-23T15:45:06;21.40;73.30
14301;DHT22;7234;59.306;18.024;2023-05-23T15:47:35;21.20;71.70
14301;DHT22;7234;59.306;18.024;2023-05-23T15:50:04;21.30;69.60
14301;DHT22;7234;59.306;18.024;2023-05-23T15:52:31;21.30;67.80
14301;DHT22;7234;59.306;18.024;2023-05-23T15:55:00;21.20;67.30
14301;DHT22;7234;59.306;18.024;2023-05-23T15:57:30;21.10;68.70
14301;DHT22;7234;59.306;18.024;2023-05-23T15:59:57;21.00;69.20
14301;DHT22;7234;59.306;18.024;2023-05-23T16:02:24;20.80;68.60
14301;DHT22;7234;59.306;18.024;2023-05-23T16:04:51;20.90;68.80
14301;DHT22;7234;59.306;18.024;2023-05-23T16:07:18;20.90;70.00